createdAt,value
2022-11-29T00:00:02.727Z,85.37
2022-11-29T00:03:25.733Z,85.49
2022-11-29T00:06:47.298Z,85.29
2022-11-29T00:10:09.397Z,85.99
2022-11-29T00:13:33.898Z,85.80
2022-11-29T00:17:02.863Z,85.88
2022-11-29T00:20:26.874Z,86.16
2022-11-29T00:23:50.751Z,86.84
2022-11-29T00:27:12.361Z,86.94
2022-11-29T00:30:33.991Z,86.69
2022-11-29T00:33:57.039Z,87.83
2022-11-29T00:37:18.606Z,87.79
2022-11-29T00:40:44.727Z,86.90
2022-11-29T00:44:06.388Z,86.67
2022-11-29T00:47:27.961Z,86.45
2022-11-29T00:50:49.502Z,85.91
2022-11-29T00:54:11.054Z,84.73
2022-11-29T00:57:32.745Z,85.49
2022-11-29T01:00:54.786Z,85.12
2022-11-29T01:04:18.658Z,84.86
2022-11-29T01:07:40.286Z,85.79
2022-11-29T01:11:13.094Z,84.97
2022-11-29T01:14:37.161Z,85.76
2022-11-29T01:18:03.467Z,85.21
2022-11-29T01:21:24.990Z,85.23
2022-11-29T01:24:46.770Z,85.34
2022-11-29T01:28:08.369Z,85.00
2022-11-29T01:31:36.406Z,85.81
2022-11-29T01:34:57.894Z,85.08
2022-11-29T01:38:22.523Z,85.61
2022-11-29T01:41:44.041Z,85.79
2022-11-29T01:45:18.190Z,84.87
2022-11-29T01:48:39.760Z,84.84
2022-11-29T01:52:11.279Z,85.16
2022-11-29T01:55:33.496Z,83.74
2022-11-29T01:58:55.271Z,84.24
2022-11-29T02:02:41.574Z,84.01
2022-11-29T02:06:04.557Z,84.01
2022-11-29T02:09:26.131Z,84.49
2022-11-29T02:13:03.080Z,84.99
2022-11-29T02:16:40.736Z,84.70
2022-11-29T02:20:20.591Z,85.43
2022-11-29T02:24:29.826Z,85.58
2022-11-29T02:28:06.410Z,85.11
2022-11-29T02:31:40.046Z,85.44
2022-11-29T02:35:13.008Z,84.08
2022-11-29T02:38:34.496Z,85.21
2022-11-29T02:42:04.977Z,84.89
2022-11-29T02:45:38.635Z,85.34
2022-11-29T02:49:19.770Z,85.22
2022-11-29T02:52:52.749Z,84.84
2022-11-29T02:56:38.289Z,84.28
2022-11-29T03:00:05.048Z,84.86
2022-11-29T03:03:48.185Z,85.33
2022-11-29T03:07:39.096Z,85.16
2022-11-29T03:11:16.498Z,85.76
2022-11-29T03:15:31.816Z,85.20
2022-11-29T03:19:19.546Z,85.03
2022-11-29T03:22:55.172Z,85.12
2022-11-29T03:26:25.888Z,84.68
2022-11-29T03:30:02.686Z,84.91
2022-11-29T03:33:45.772Z,85.00
2022-11-29T03:37:19.031Z,84.89
2022-11-29T03:40:52.366Z,84.94
2022-11-29T03:44:25.360Z,84.59
2022-11-29T03:48:09.336Z,84.21
2022-11-29T03:51:48.927Z,84.09
2022-11-29T03:55:20.028Z,84.52
2022-11-29T03:59:23.178Z,84.30
2022-11-29T04:03:32.534Z,84.72
2022-11-29T04:07:02.950Z,84.45
2022-11-29T04:10:36.541Z,84.39
2022-11-29T04:14:07.532Z,84.41
2022-11-29T04:17:47.347Z,85.18
2022-11-29T04:21:50.310Z,85.03
2022-11-29T04:25:41.937Z,84.28
2022-11-29T04:29:22.292Z,84.70
2022-11-29T04:33:26.116Z,84.72
2022-11-29T04:37:15.828Z,85.45
2022-11-29T04:41:04.229Z,84.17
2022-11-29T04:44:40.893Z,84.37
2022-11-29T04:48:11.532Z,83.66
2022-11-29T04:52:06.793Z,84.62
2022-11-29T04:55:43.171Z,84.90
2022-11-29T04:59:29.192Z,84.60
2022-11-29T05:02:57.794Z,84.98
2022-11-29T05:06:29.090Z,84.60
2022-11-29T05:10:24.371Z,84.84
2022-11-29T05:13:45.861Z,84.78
2022-11-29T05:17:26.628Z,84.46
2022-11-29T05:20:56.926Z,84.05
2022-11-29T05:24:25.115Z,85.04
2022-11-29T05:27:52.843Z,85.33
2022-11-29T05:31:23.772Z,85.00
2022-11-29T05:35:03.941Z,84.84
2022-11-29T05:38:45.166Z,85.49
2022-11-29T05:42:21.849Z,85.09
2022-11-29T05:45:47.688Z,84.78
2022-11-29T05:49:18.170Z,85.12
2022-11-29T05:53:10.383Z,85.09
2022-11-29T05:56:53.793Z,93.09
2022-11-29T06:00:18.432Z,91.58
2022-11-29T06:03:45.170Z,88.78
2022-11-29T06:07:19.824Z,88.90
2022-11-29T06:10:57.671Z,86.91
2022-11-29T06:14:44.207Z,80.41
2022-11-29T06:18:18.351Z,80.82
2022-11-29T06:22:11.597Z,81.50
2022-11-29T06:26:05.108Z,82.24
2022-11-29T06:29:36.787Z,82.96
2022-11-29T06:33:18.925Z,83.00
2022-11-29T06:36:58.600Z,83.54
2022-11-29T06:40:20.203Z,84.13
2022-11-29T06:43:42.049Z,84.19
2022-11-29T06:47:13.502Z,83.94
2022-11-29T06:50:55.409Z,84.33
2022-11-29T06:54:43.335Z,84.83
2022-11-29T06:58:10.975Z,84.47
2022-11-29T07:01:53.573Z,84.38
2022-11-29T07:05:26.598Z,84.65
2022-11-29T07:08:55.345Z,84.52
2022-11-29T07:12:17.996Z,84.90
2022-11-29T07:16:07.291Z,84.50
2022-11-29T07:19:31.883Z,84.44
2022-11-29T07:23:24.812Z,84.16
2022-11-29T07:27:12.636Z,83.65
2022-11-29T07:30:57.711Z,83.25
2022-11-29T07:34:44.836Z,83.34
2022-11-29T07:38:36.474Z,83.53
2022-11-29T07:42:06.896Z,82.75
2022-11-29T07:45:29.916Z,82.06
2022-11-29T07:48:53.822Z,82.42
2022-11-29T07:52:16.723Z,81.99
2022-11-29T07:55:38.421Z,82.10
2022-11-29T07:58:59.995Z,82.46
2022-11-29T08:02:31.702Z,89.70
2022-11-29T08:05:53.429Z,96.94
2022-11-29T08:09:17.259Z,92.74
2022-11-29T08:12:46.155Z,83.32
2022-11-29T08:16:07.763Z,83.79
2022-11-29T08:19:29.330Z,76.34
2022-11-29T08:23:00.093Z,77.83
2022-11-29T08:26:29.735Z,79.01
2022-11-29T08:29:52.980Z,80.12
2022-11-29T08:33:14.482Z,79.71
2022-11-29T08:36:36.550Z,80.21
2022-11-29T08:39:58.978Z,81.08
2022-11-29T08:43:23.185Z,81.11
2022-11-29T08:47:05.689Z,81.46
2022-11-29T08:50:29.786Z,81.26
2022-11-29T08:53:51.698Z,80.87
2022-11-29T08:57:39.388Z,81.93
2022-11-29T09:00:57.416Z,81.21
2022-11-29T09:04:21.416Z,80.62
2022-11-29T09:07:43.437Z,79.77
2022-11-29T09:11:13.325Z,81.06
2022-11-29T09:14:34.922Z,82.08
2022-11-29T09:17:57.233Z,85.69
2022-11-29T09:21:22.237Z,89.39
2022-11-29T09:24:44.297Z,84.78
2022-11-29T09:28:06.154Z,86.26
2022-11-29T09:31:29.314Z,85.07
2022-11-29T09:34:53.381Z,82.66
2022-11-29T09:38:17.115Z,82.63
2022-11-29T09:42:11.107Z,74.54
2022-11-29T09:45:38.597Z,75.13
2022-11-29T09:49:12.558Z,76.68
2022-11-29T09:52:47.290Z,76.93
2022-11-29T09:56:34.115Z,76.65
2022-11-29T10:00:01.637Z,76.86
2022-11-29T10:03:28.065Z,77.99
2022-11-29T10:06:58.674Z,77.45
2022-11-29T10:10:29.258Z,78.38
2022-11-29T10:13:56.692Z,77.61
2022-11-29T10:17:41.943Z,78.03
2022-11-29T10:21:19.379Z,77.60
2022-11-29T10:24:45.365Z,77.96
2022-11-29T10:28:14.711Z,78.24
2022-11-29T10:31:43.258Z,77.18
2022-11-29T10:35:15.472Z,76.63
2022-11-29T10:38:37.393Z,77.59
2022-11-29T10:42:02.501Z,76.85
2022-11-29T10:45:30.647Z,77.35
2022-11-29T10:48:53.418Z,76.63
2022-11-29T10:52:23.060Z,77.40
2022-11-29T10:56:08.806Z,78.07
2022-11-29T10:59:32.977Z,85.15
2022-11-29T11:02:54.677Z,83.39
2022-11-29T11:06:22.676Z,82.48
2022-11-29T11:09:49.477Z,85.01
2022-11-29T11:13:29.115Z,80.29
2022-11-29T11:16:50.856Z,77.97
2022-11-29T11:20:23.930Z,74.27
2022-11-29T11:23:54.537Z,75.20
2022-11-29T11:27:31.905Z,76.24
2022-11-29T11:31:08.608Z,77.09
2022-11-29T11:34:35.993Z,77.84
2022-11-29T11:37:57.676Z,77.68
2022-11-29T11:41:23.520Z,78.26
2022-11-29T11:44:50.535Z,77.98
2022-11-29T11:48:17.602Z,79.42
2022-11-29T11:51:44.093Z,79.10
2022-11-29T11:55:20.862Z,79.02
2022-11-29T11:58:53.220Z,78.62
2022-11-29T12:02:36.584Z,79.49
2022-11-29T12:06:08.219Z,79.42
2022-11-29T12:09:41.744Z,81.28
2022-11-29T12:13:04.585Z,80.99
2022-11-29T12:16:34.829Z,78.56
2022-11-29T12:20:09.326Z,78.58
2022-11-29T12:23:30.811Z,86.76
2022-11-29T12:26:58.543Z,85.59
2022-11-29T12:30:23.898Z,85.31
2022-11-29T12:34:03.030Z,83.38
2022-11-29T12:37:46.319Z,83.88
2022-11-29T12:41:22.717Z,80.89
2022-11-29T12:44:44.616Z,75.36
2022-11-29T12:48:34.715Z,76.28
2022-11-29T12:52:20.446Z,76.87
2022-11-29T12:56:00.346Z,77.59
2022-11-29T12:59:39.708Z,78.59
2022-11-29T13:03:39.440Z,78.97
2022-11-29T13:07:16.195Z,79.70
2022-11-29T13:10:52.555Z,79.75
2022-11-29T13:14:43.401Z,79.87
2022-11-29T13:18:17.067Z,79.53
2022-11-29T13:22:02.940Z,79.46
2022-11-29T13:25:33.874Z,79.64
2022-11-29T13:28:55.805Z,80.33
2022-11-29T13:32:30.332Z,80.15
2022-11-29T13:36:23.615Z,80.57
2022-11-29T13:39:51.231Z,80.23
2022-11-29T13:43:24.679Z,81.97
2022-11-29T13:47:18.662Z,82.59
2022-11-29T13:50:43.754Z,86.91
2022-11-29T13:54:29.649Z,85.68
2022-11-29T13:58:15.312Z,82.51
2022-11-29T14:01:53.978Z,81.94
2022-11-29T14:05:30.843Z,83.16
2022-11-29T14:09:17.665Z,75.80
2022-11-29T14:12:53.642Z,76.13
2022-11-29T14:16:27.143Z,76.82
2022-11-29T14:19:48.882Z,77.73
2022-11-29T14:23:16.831Z,78.55
2022-11-29T14:26:38.395Z,79.22
2022-11-29T14:30:02.448Z,78.87
2022-11-29T14:33:29.534Z,79.01
2022-11-29T14:37:04.146Z,79.33
2022-11-29T14:40:31.836Z,79.69
2022-11-29T14:44:22.070Z,80.12
2022-11-29T14:47:50.149Z,79.27
2022-11-29T14:51:16.961Z,80.53
2022-11-29T14:55:02.202Z,80.55
2022-11-29T14:58:23.828Z,80.84
2022-11-29T15:01:46.053Z,84.50
2022-11-29T15:05:20.143Z,88.39
2022-11-29T15:09:14.734Z,87.55
2022-11-29T15:12:37.778Z,84.26
2022-11-29T15:16:10.677Z,83.08
2022-11-29T15:19:53.961Z,83.78
2022-11-29T15:23:18.592Z,76.24
2022-11-29T15:26:55.446Z,76.64
2022-11-29T15:30:38.464Z,77.38
2022-11-29T15:34:00.081Z,78.59
2022-11-29T15:37:25.071Z,79.14
2022-11-29T15:40:54.702Z,80.17
2022-11-29T15:44:22.235Z,80.49
2022-11-29T15:47:45.994Z,80.47
2022-11-29T15:51:22.575Z,81.23
2022-11-29T15:54:51.458Z,80.63
2022-11-29T15:58:15.927Z,80.88
2022-11-29T16:01:39.373Z,81.26
2022-11-29T16:05:16.273Z,87.88
2022-11-29T16:08:41.995Z,94.42
2022-11-29T16:12:07.483Z,88.64
2022-11-29T16:15:33.129Z,88.20
2022-11-29T16:18:56.934Z,81.78
2022-11-29T16:22:24.268Z,82.13
2022-11-29T16:26:00.917Z,82.53
2022-11-29T16:29:36.406Z,76.87
2022-11-29T16:33:03.482Z,77.38
2022-11-29T16:36:26.801Z,79.34
2022-11-29T16:39:50.785Z,80.03
2022-11-29T16:43:24.065Z,80.81
2022-11-29T16:46:48.647Z,81.42
2022-11-29T16:50:21.560Z,81.06
2022-11-29T16:53:47.738Z,80.78
2022-11-29T16:57:09.404Z,88.18
2022-11-29T17:00:32.833Z,87.09
2022-11-29T17:03:59.586Z,85.85
2022-11-29T17:07:30.885Z,83.82
2022-11-29T17:10:55.184Z,84.78
2022-11-29T17:14:16.691Z,83.72
2022-11-29T17:17:38.648Z,83.87
2022-11-29T17:21:02.358Z,83.41
2022-11-29T17:24:24.835Z,81.99
2022-11-29T17:27:46.393Z,76.49
2022-11-29T17:31:12.987Z,77.80
2022-11-29T17:34:36.837Z,79.21
2022-11-29T17:37:58.775Z,80.23
2022-11-29T17:41:28.209Z,80.65
2022-11-29T17:44:49.798Z,82.12
2022-11-29T17:48:11.291Z,82.44
2022-11-29T17:51:53.733Z,83.36
2022-11-29T17:55:20.832Z,83.07
2022-11-29T17:58:45.237Z,89.97
2022-11-29T18:02:11.918Z,89.78
2022-11-29T18:05:34.911Z,87.17
2022-11-29T18:08:58.720Z,85.37
2022-11-29T18:12:20.401Z,84.64
2022-11-29T18:15:44.909Z,83.71
2022-11-29T18:19:09.562Z,82.97
2022-11-29T18:22:33.390Z,82.33
2022-11-29T18:26:00.032Z,76.72
2022-11-29T18:29:23.869Z,77.07
2022-11-29T18:32:45.426Z,78.18
2022-11-29T18:36:11.000Z,79.03
2022-11-29T18:39:32.556Z,80.03
2022-11-29T18:42:54.078Z,81.07
2022-11-29T18:46:20.092Z,81.93
2022-11-29T18:49:41.671Z,82.26
2022-11-29T18:53:04.250Z,82.66
2022-11-29T18:56:28.723Z,82.87
2022-11-29T18:59:50.290Z,82.87
2022-11-29T19:03:11.804Z,95.21
2022-11-29T19:06:39.180Z,94.01
2022-11-29T19:10:01.118Z,89.56
2022-11-29T19:13:25.343Z,87.52
2022-11-29T19:16:50.092Z,81.98
2022-11-29T19:20:12.125Z,82.89
2022-11-29T19:23:34.199Z,83.44
2022-11-29T19:26:59.271Z,82.53
2022-11-29T19:30:20.887Z,77.23
2022-11-29T19:33:44.807Z,77.93
2022-11-29T19:37:09.124Z,78.61
2022-11-29T19:40:32.793Z,79.75
2022-11-29T19:43:57.222Z,80.31
2022-11-29T19:47:18.749Z,81.06
2022-11-29T19:50:40.264Z,87.08
2022-11-29T19:54:05.137Z,86.65
2022-11-29T19:57:26.711Z,85.65
2022-11-29T20:00:50.504Z,84.48
2022-11-29T20:04:13.715Z,83.81
2022-11-29T20:07:35.340Z,82.92
2022-11-29T20:11:13.970Z,82.01
2022-11-29T20:14:35.733Z,81.92
2022-11-29T20:17:57.264Z,81.39
2022-11-29T20:21:21.744Z,82.03
2022-11-29T20:24:45.664Z,82.89
2022-11-29T20:28:09.899Z,81.32
2022-11-29T20:31:33.012Z,75.96
2022-11-29T20:34:55.186Z,77.20
2022-11-29T20:38:49.885Z,78.54
2022-11-29T20:42:29.607Z,79.10
2022-11-29T20:45:53.895Z,79.47
2022-11-29T20:49:17.342Z,80.46
2022-11-29T20:52:44.576Z,80.56
2022-11-29T20:56:07.133Z,80.63
2022-11-29T20:59:28.608Z,80.76
2022-11-29T21:02:50.196Z,81.04
2022-11-29T21:06:16.356Z,81.16
2022-11-29T21:09:38.033Z,80.94
2022-11-29T21:13:02.363Z,80.82
2022-11-29T21:16:31.093Z,80.84
2022-11-29T21:19:53.110Z,80.76
2022-11-29T21:23:25.483Z,81.27
2022-11-29T21:26:51.507Z,81.35
2022-11-29T21:30:21.814Z,81.40
2022-11-29T21:33:46.690Z,81.34
2022-11-29T21:37:10.754Z,81.55
2022-11-29T21:40:32.263Z,81.16
2022-11-29T21:44:09.225Z,81.39
2022-11-29T21:47:31.779Z,81.87
2022-11-29T21:50:53.329Z,81.86
2022-11-29T21:54:15.991Z,81.74
2022-11-29T21:57:40.206Z,80.76
2022-11-29T22:01:16.830Z,82.09
2022-11-29T22:04:44.406Z,81.70
2022-11-29T22:08:08.466Z,82.13
2022-11-29T22:11:34.516Z,81.43
2022-11-29T22:14:59.126Z,82.00
2022-11-29T22:18:20.814Z,81.80
2022-11-29T22:21:44.165Z,80.93
2022-11-29T22:25:08.315Z,82.03
2022-11-29T22:28:29.801Z,81.62
2022-11-29T22:31:55.881Z,81.85
2022-11-29T22:35:17.419Z,81.71
2022-11-29T22:38:39.849Z,81.81
2022-11-29T22:42:01.337Z,81.53
2022-11-29T22:45:25.608Z,82.10
2022-11-29T22:48:51.594Z,82.18
2022-11-29T22:52:13.138Z,81.74
2022-11-29T22:55:34.658Z,81.79
2022-11-29T22:58:56.454Z,81.86
2022-11-29T23:02:20.104Z,81.98
2022-11-29T23:05:41.691Z,81.94
2022-11-29T23:09:06.923Z,81.59
2022-11-29T23:12:28.559Z,81.63
2022-11-29T23:15:51.071Z,81.99
2022-11-29T23:19:12.788Z,81.96
2022-11-29T23:22:38.678Z,81.76
2022-11-29T23:26:01.346Z,82.29
2022-11-29T23:29:27.498Z,81.97
2022-11-29T23:32:51.364Z,81.68
2022-11-29T23:36:16.560Z,81.65
2022-11-29T23:39:38.106Z,81.72
2022-11-29T23:42:59.660Z,81.72
2022-11-29T23:46:25.683Z,81.71
2022-11-29T23:49:47.229Z,81.82
2022-11-29T23:53:12.441Z,81.38
2022-11-29T23:56:35.505Z,81.51
2022-11-29T23:59:57.423Z,81.92
